Time;durP1;ratioP1;P1;durP2;ratioP2;P2;SDS_P1;SDS_P2;PMS_P1;PMS_P2;Temp;Humidity;BMP_temperature;BMP_pressure;BME280_temperature;BME280_humidity;BME280_pressure;Samples;Min_cycle;Max_cycle;Signal;HPM_P1;HPM_P2
2022/03/19 00:00:47;;;;;;;;;4.33;3.67;;;;;10.53;37.43;103220.69;4957139;28;45407;-52
2022/03/19 00:03:12;;;;;;;;;5.33;5.00;;;;;10.53;37.18;103225.16;4957142;28;45476;-54
2022/03/19 00:05:38;;;;;;;;;5.00;5.00;;;;;10.49;37.35;103222.69;4957391;28;45374;-55
2022/03/19 00:08:04;;;;;;;;;3.00;3.00;;;;;10.48;37.49;103222.75;4956970;28;46263;-51
2022/03/19 00:10:30;;;;;;;;;5.33;4.33;;;;;10.42;37.51;103221.28;4956910;28;45442;-52
2022/03/19 00:12:55;;;;;;;;;2.67;2.67;;;;;10.38;37.54;103222.41;4956813;28;45295;-51
2022/03/19 00:15:20;;;;;;;;;11.33;8.67;;;;;10.38;37.47;103222.41;4957062;28;45397;-53
2022/03/19 00:17:46;;;;;;;;;3.00;3.00;;;;;10.36;37.47;103218.09;4957082;28;45547;-55
2022/03/19 00:20:12;;;;;;;;;4.33;2.67;;;;;10.36;37.63;103220.75;4956773;28;45261;-50
2022/03/19 00:22:38;;;;;;;;;6.00;3.00;;;;;10.34;37.56;103222.66;4956915;28;45367;-52
2022/03/19 00:25:04;;;;;;;;;3.67;3.67;;;;;10.30;37.53;103229.94;4956956;28;45667;-53
2022/03/19 00:27:29;;;;;;;;;3.67;2.33;;;;;10.28;37.79;103218.56;4956537;28;46236;-52
2022/03/19 00:29:55;;;;;;;;;3.00;3.00;;;;;10.27;37.13;103219.47;4956803;28;45269;-51
2022/03/19 00:32:21;;;;;;;;;3.00;3.00;;;;;10.26;37.49;103223.09;4956712;28;45456;-53
2022/03/19 00:34:46;;;;;;;;;5.75;3.50;;;;;10.22;37.14;103213.53;4956988;28;45379;-52
2022/03/19 00:37:12;;;;;;;;;5.00;5.00;;;;;10.22;37.54;103218.84;4956546;28;45367;-53
2022/03/19 00:39:37;;;;;;;;;4.33;2.67;;;;;10.19;37.44;103217.19;4956633;28;45463;-48
2022/03/19 00:42:03;;;;;;;;;6.67;2.00;;;;;10.16;37.36;103213.88;4956897;28;45372;-51
2022/03/19 00:44:28;;;;;;;;;4.33;2.00;;;;;10.14;37.26;103208.59;4955359;28;45328;-52
2022/03/19 00:46:54;;;;;;;;;8.67;5.67;;;;;10.12;37.41;103210.50;4956440;28;46161;-50
2022/03/19 00:49:19;;;;;;;;;2.00;2.00;;;;;9.99;37.40;103190.84;4956723;28;45453;-52
2022/03/19 00:51:44;;;;;;;;;3.67;2.33;;;;;10.09;37.88;103215.13;4956686;28;45367;-52
2022/03/19 00:54:11;;;;;;;;;7.00;5.33;;;;;10.04;38.16;103199.44;4956690;28;45756;-49
2022/03/19 00:56:37;;;;;;;;;3.00;3.00;;;;;10.05;37.80;103201.13;4956313;28;45441;-50
2022/03/19 00:59:03;;;;;;;;;3.00;3.00;;;;;10.03;38.11;103202.16;4956413;28;45262;-54
2022/03/19 01:01:28;;;;;;;;;4.00;4.00;;;;;10.03;37.58;103204.81;4956783;28;45298;-53
2022/03/19 01:03:54;;;;;;;;;2.00;2.00;;;;;10.01;37.95;103199.59;4956469;28;45484;-54
2022/03/19 01:06:20;;;;;;;;;3.67;3.67;;;;;9.99;38.18;103194.34;4956585;28;45434;-50
2022/03/19 01:08:46;;;;;;;;;6.33;5.00;;;;;9.97;38.04;103190.06;4956348;28;45465;-46
2022/03/19 01:11:11;;;;;;;;;10.00;5.00;;;;;9.86;38.28;103173.81;4956405;28;45379;-54
2022/03/19 01:13:37;;;;;;;;;3.67;3.67;;;;;9.95;38.08;103192.81;4956763;28;45548;-52
2022/03/19 01:16:03;;;;;;;;;5.67;2.00;;;;;9.92;38.04;103189.44;4956200;28;46094;-51
2022/03/19 01:18:31;;;;;;;;;6.67;4.33;;;;;9.80;38.13;103174.16;4956295;28;45471;-54
2022/03/19 01:20:58;;;;;;;;;2.00;2.00;;;;;9.87;37.76;103195.00;4956370;28;45303;-52
2022/03/19 01:23:23;;;;;;;;;3.00;3.00;;;;;9.87;37.84;103191.50;4956316;28;45339;-54
2022/03/19 01:25:48;;;;;;;;;2.00;2.00;;;;;9.83;37.70;103187.28;4956033;28;46953;-54
2022/03/19 01:28:14;;;;;;;;;6.00;2.00;;;;;9.83;37.84;103187.28;4956032;28;45383;-53
2022/03/19 01:30:40;;;;;;;;;6.67;5.00;;;;;9.70;37.84;103168.47;4956433;28;45283;-45
2022/03/19 01:33:05;;;;;;;;;5.67;2.00;;;;;9.80;38.28;103177.66;4956483;28;45410;-49
2022/03/19 01:35:31;;;;;;;;;2.75;2.75;;;;;9.78;37.87;103187.53;4955998;28;46996;-54
2022/03/19 01:37:57;;;;;;;;;3.00;3.00;;;;;9.75;37.87;103180.56;4955993;28;45424;-53
2022/03/19 01:40:22;;;;;;;;;2.00;2.00;;;;;9.74;37.69;103176.22;4956211;28;45287;-51
2022/03/19 01:42:51;;;;;;;;;5.00;3.00;;;;;9.70;38.18;103172.00;4956448;28;45376;-52
2022/03/19 01:45:20;;;;;;;;;2.33;2.33;;;;;9.70;38.27;103171.13;4955548;28;46483;-50
2022/03/19 01:47:47;;;;;;;;;5.00;2.00;;;;;9.68;38.59;103175.66;4955981;28;45300;-49
2022/03/19 01:50:13;;;;;;;;;3.33;2.67;;;;;9.66;38.34;103165.13;4956053;28;45351;-53
2022/03/19 01:52:39;;;;;;;;;5.00;3.00;;;;;9.64;38.23;103174.09;4955976;28;45466;-54
2022/03/19 01:55:06;;;;;;;;;3.67;2.00;;;;;9.62;38.11;103176.84;4955805;28;46350;-48
2022/03/19 01:57:37;;;;;;;;;4.25;3.00;;;;;9.62;37.84;103170.69;4955317;28;45418;-50
2022/03/19 02:00:04;;;;;;;;;5.67;4.33;;;;;9.60;38.05;103167.22;4955949;28;45418;-53
2022/03/19 02:02:29;;;;;;;;;5.00;2.00;;;;;9.58;38.40;103169.97;4955980;28;45379;-52
2022/03/19 02:04:55;;;;;;;;;3.67;2.33;;;;;9.58;38.38;103175.28;4955452;28;46319;-53
2022/03/19 02:07:21;;;;;;;;;2.50;2.50;;;;;9.55;37.81;103166.63;4955714;28;45473;-47
2022/03/19 02:09:46;;;;;;;;;7.50;3.50;;;;;9.53;38.70;103166.72;4955772;28;45336;-53
2022/03/19 02:12:11;;;;;;;;;4.00;2.33;;;;;9.54;37.95;103165.75;4955835;28;45197;-50
2022/03/19 02:14:38;;;;;;;;;4.50;4.00;;;;;9.52;38.28;103164.97;4955589;28;45383;-51
2022/03/19 02:17:06;;;;;;;;;5.75;2.25;;;;;9.41;38.20;103135.47;4955813;28;45332;-49
2022/03/19 02:19:32;;;;;;;;;4.00;2.75;;;;;9.44;38.67;103143.28;4955700;28;45366;-52
2022/03/19 02:21:58;;;;;;;;;5.25;4.50;;;;;9.42;38.59;103153.97;4955676;28;45277;-54
2022/03/19 02:27:08;;;;;;;;;7.00;5.50;;;;;9.40;38.47;103144.38;4955045;28;45521;-53
2022/03/19 02:29:33;;;;;;;;;3.25;2.25;;;;;9.40;39.14;103157.69;4955524;28;45445;-52
2022/03/19 02:32:03;;;;;;;;;5.00;2.00;;;;;9.37;38.69;103153.38;4955834;28;45283;-50
2022/03/19 02:34:29;;;;;;;;;4.00;4.00;;;;;9.35;38.79;103141.09;4955191;28;47200;-52
2022/03/19 02:36:54;;;;;;;;;8.00;6.00;;;;;9.35;39.46;103141.09;4955293;28;45784;-54
2022/03/19 02:39:25;;;;;;;;;8.25;6.75;;;;;9.33;39.63;103133.22;4955360;28;45759;-54
2022/03/19 02:41:52;;;;;;;;;7.75;6.25;;;;;9.30;38.97;103128.06;4955557;28;45426;-54
2022/03/19 02:44:19;;;;;;;;;6.75;6.00;;;;;9.30;39.02;103133.38;4954677;28;45449;-52
2022/03/19 02:46:46;;;;;;;;;8.25;5.25;;;;;9.28;39.30;103129.09;4954847;28;45448;-53
2022/03/19 02:49:13;;;;;;;;;7.75;7.75;;;;;9.25;39.89;103130.09;4955263;28;45461;-44
2022/03/19 02:51:40;;;;;;;;;5.50;5.25;;;;;9.24;39.74;103133.69;4955396;28;45381;-51
2022/03/19 02:54:08;;;;;;;;;9.75;6.50;;;;;9.23;39.99;103126.69;4954863;28;47649;-46
2022/03/19 02:56:36;;;;;;;;;10.25;9.00;;;;;9.21;39.70;103131.19;4954817;28;45329;-53
2022/03/19 02:59:09;;;;;;;;;6.25;4.50;;;;;9.19;39.60;103133.94;4954806;28;45347;-53
2022/03/19 03:01:36;;;;;;;;;7.25;5.50;;;;;9.18;39.41;103126.03;4955119;28;45434;-52
2022/03/19 03:04:02;;;;;;;;;10.50;9.00;;;;;9.03;40.02;103105.59;4954601;28;46365;-50
2022/03/19 03:06:28;;;;;;;;;5.25;3.25;;;;;9.10;39.53;103120.25;4954827;28;45558;-53
2022/03/19 03:08:54;;;;;;;;;9.50;7.00;;;;;9.07;40.27;103104.50;4953741;28;45352;-52
2022/03/19 03:11:19;;;;;;;;;22.50;19.00;;;;;9.09;39.71;103110.56;4954971;28;45368;-53
2022/03/19 03:13:45;;;;;;;;;9.25;5.00;;;;;9.06;40.64;103106.31;4954241;28;46342;-52
2022/03/19 03:16:10;;;;;;;;;6.50;6.00;;;;;9.03;39.72;103095.84;4955875;28;45331;-53
2022/03/19 03:18:37;;;;;;;;;7.25;4.50;;;;;8.94;40.37;103083.03;4955188;28;45410;-49
2022/03/19 03:21:03;;;;;;;;;7.00;7.00;;;;;8.98;40.64;103096.06;4954850;28;45233;-51
2022/03/19 03:23:28;;;;;;;;;11.00;9.00;;;;;8.95;40.41;103090.06;4954655;28;45200;-49
2022/03/19 03:25:53;;;;;;;;;2.00;2.00;;;;;8.94;41.30;103104.28;4954494;28;45171;-51
2022/03/19 03:28:19;;;;;;;;;9.50;9.00;;;;;8.93;41.02;103099.88;4954692;28;45475;-47
2022/03/19 03:30:44;;;;;;;;;12.50;7.00;;;;;8.88;40.66;103099.25;4955611;28;45404;-50
2022/03/19 03:33:10;;;;;;;;;10.75;9.00;;;;;8.78;40.76;103085.59;4954685;28;46377;-49
2022/03/19 03:35:35;;;;;;;;;17.50;8.25;;;;;8.87;40.89;103097.56;4954960;28;45254;-52
2022/03/19 03:38:00;;;;;;;;;11.00;9.00;;;;;8.86;40.86;103096.69;4955019;28;45613;-47
2022/03/19 03:40:26;;;;;;;;;10.25;10.00;;;;;8.85;41.06;103096.75;4955076;28;45242;-49
2022/03/19 03:42:53;;;;;;;;;11.25;10.50;;;;;8.81;41.08;103092.56;4954173;28;46723;-49
2022/03/19 03:45:19;;;;;;;;;16.00;9.00;;;;;8.81;41.08;103093.41;4954018;28;45475;-52
2022/03/19 03:47:44;;;;;;;;;21.25;10.00;;;;;8.79;42.10;103095.28;4954558;28;45316;-51
2022/03/19 03:50:10;;;;;;;;;14.50;10.50;;;;;8.78;40.64;103088.25;4954351;28;45323;-51
2022/03/19 03:52:36;;;;;;;;;11.75;11.75;;;;;8.77;41.88;103093.66;4954386;28;45427;-52
2022/03/19 03:55:03;;;;;;;;;12.50;9.50;;;;;8.78;41.99;103098.03;4954066;28;45278;-51
2022/03/19 03:57:29;;;;;;;;;15.50;10.25;;;;;8.76;41.69;103100.72;4954205;28;45360;-51
2022/03/19 03:59:54;;;;;;;;;20.00;13.25;;;;;8.74;41.85;103100.81;4954047;28;45327;-45
2022/03/19 04:02:19;;;;;;;;;12.50;10.75;;;;;8.74;41.61;103100.81;4953826;28;45960;-52
2022/03/19 04:04:45;;;;;;;;;21.25;13.75;;;;;8.67;42.33;103086.13;4953920;28;45435;-44
2022/03/19 04:07:10;;;;;;;;;14.50;11.00;;;;;8.70;42.00;103099.25;4954265;28;45328;-51
2022/03/19 04:09:35;;;;;;;;;12.00;11.00;;;;;8.67;42.41;103091.44;4954290;28;45364;-52
2022/03/19 04:12:04;;;;;;;;;18.00;13.50;;;;;8.68;42.96;103098.50;4968591;28;46018;-53
2022/03/19 04:14:30;;;;;;;;;14.25;12.50;;;;;8.65;42.28;103092.47;4953684;28;45400;-51
2022/03/19 04:16:55;;;;;;;;;13.25;11.25;;;;;8.66;42.50;103096.84;4953703;28;45360;-49
2022/03/19 04:19:21;;;;;;;;;13.25;11.00;;;;;8.62;42.71;103093.47;4954979;28;45351;-46
2022/03/19 04:21:46;;;;;;;;;15.25;12.25;;;;;8.64;42.86;103090.75;4956841;28;45430;-47
2022/03/19 04:24:11;;;;;;;;;18.75;14.25;;;;;8.62;42.56;103089.97;4956862;28;45283;-54
2022/03/19 04:26:37;;;;;;;;;14.00;11.50;;;;;8.60;42.24;103100.66;4957168;28;45179;-53
2022/03/19 04:29:02;;;;;;;;;22.00;14.25;;;;;8.57;43.72;103098.16;4956899;28;45499;-45
2022/03/19 04:31:28;;;;;;;;;14.00;11.75;;;;;8.55;42.73;103096.50;4956745;28;46059;-53
2022/03/19 04:33:53;;;;;;;;;17.25;13.50;;;;;8.53;43.36;103104.53;4956565;28;45404;-48
2022/03/19 04:36:30;;;;;;;;;18.75;12.50;;;;;8.52;42.47;103102.84;4956876;28;45265;-49
2022/03/19 04:39:00;;;;;;;;;16.25;13.25;;;;;8.49;43.82;103095.00;4957076;28;45784;-51
2022/03/19 04:41:26;;;;;;;;;16.25;15.25;;;;;8.46;43.26;103095.16;4956347;28;45469;-53
2022/03/19 04:43:51;;;;;;;;;20.75;14.75;;;;;8.43;43.12;103082.06;4956198;28;45355;-52
2022/03/19 04:46:17;;;;;;;;;23.00;14.75;;;;;8.40;44.09;103085.72;4956370;28;45340;-49
2022/03/19 04:48:45;;;;;;;;;27.25;17.25;;;;;8.39;43.41;103084.00;4956835;28;45330;-49
2022/03/19 04:51:14;;;;;;;;;14.50;11.75;;;;;8.37;44.12;103083.22;4956637;28;45327;-52
2022/03/19 04:53:40;;;;;;;;;22.50;15.75;;;;;8.34;43.64;103088.63;4956287;28;45387;-52
2022/03/19 04:56:06;;;;;;;;;15.50;13.50;;;;;8.32;44.10;103084.34;4956720;28;45417;-46
2022/03/19 04:58:35;;;;;;;;;18.25;15.50;;;;;8.15;43.35;103056.00;4956716;28;45370;-48
2022/03/19 05:01:01;;;;;;;;;23.50;16.50;;;;;8.29;44.62;103084.50;4987619;28;46291;-52
2022/03/19 05:03:26;;;;;;;;;27.00;20.25;;;;;8.26;44.86;103085.50;4956601;28;45431;-53
2022/03/19 05:05:52;;;;;;;;;16.00;13.00;;;;;8.22;44.81;103079.50;4956278;28;45457;-53
2022/03/19 05:08:18;;;;;;;;;26.75;17.50;;;;;8.21;45.02;103077.75;4956712;28;45462;-47
2022/03/19 05:13:28;;;;;;;;;17.75;15.50;;;;;8.16;44.80;103079.78;4956351;28;45411;-53
2022/03/19 05:15:54;;;;;;;;;25.75;21.50;;;;;8.13;45.72;103074.63;4955806;28;45454;-53
2022/03/19 05:18:20;;;;;;;;;30.75;24.00;;;;;8.04;45.40;103068.91;4956691;28;45407;-45
2022/03/19 05:20:46;;;;;;;;;24.75;19.50;;;;;8.10;46.22;103076.56;4956158;28;45886;-53
2022/03/19 05:23:11;;;;;;;;;30.75;22.25;;;;;8.09;45.96;103080.13;4956023;28;45414;-49
2022/03/19 05:25:38;;;;;;;;;21.00;19.25;;;;;8.08;45.43;103086.38;4956029;28;45329;-49
2022/03/19 05:28:04;;;;;;;;;27.50;24.75;;;;;8.07;45.65;103082.88;4956416;28;45472;-49
2022/03/19 05:30:30;;;;;;;;;22.25;17.00;;;;;8.05;45.40;103079.44;4955252;28;45346;-51
2022/03/19 05:32:56;;;;;;;;;30.75;19.00;;;;;8.00;46.54;103081.44;4956130;28;45390;-48
2022/03/19 05:35:21;;;;;;;;;25.75;22.50;;;;;8.03;45.64;103083.09;4956119;28;45356;-45
2022/03/19 05:37:47;;;;;;;;;25.00;21.25;;;;;8.00;46.25;103084.09;4956287;28;45416;-46
2022/03/19 05:40:13;;;;;;;;;27.75;20.25;;;;;8.00;46.50;103084.94;4955814;28;46002;-42
2022/03/19 05:42:39;;;;;;;;;37.75;29.00;;;;;7.98;46.55;103076.22;4955900;28;45397;-51
2022/03/19 05:45:05;;;;;;;;;34.00;26.75;;;;;8.00;46.92;103084.09;4957024;28;45391;-47
2022/03/19 05:47:30;;;;;;;;;28.50;23.50;;;;;7.99;46.78;103087.69;4956223;28;45504;-49
2022/03/19 05:49:55;;;;;;;;;24.00;22.00;;;;;7.95;47.19;103083.44;4954744;28;46256;-53
2022/03/19 05:52:21;;;;;;;;;36.50;27.50;;;;;8.00;48.32;103097.34;4955762;28;45378;-46
2022/03/19 05:54:47;;;;;;;;;29.75;21.00;;;;;8.01;47.11;103091.13;4956081;28;45406;-51
2022/03/19 05:57:12;;;;;;;;;30.50;30.00;;;;;7.99;47.90;103091.19;4956065;28;45258;-43
2022/03/19 05:59:38;;;;;;;;;35.75;26.50;;;;;8.00;48.16;103094.69;4955296;28;45939;-50
2022/03/19 06:02:05;;;;;;;;;32.00;22.50;;;;;8.00;46.34;103094.69;4957210;28;45385;-53
2022/03/19 06:04:33;;;;;;;;;28.75;24.00;;;;;8.01;47.42;103093.78;4955591;28;45269;-49
2022/03/19 06:06:58;;;;;;;;;31.00;25.25;;;;;8.03;47.39;103091.91;4956017;28;45415;-49
2022/03/19 06:09:23;;;;;;;;;28.75;26.25;;;;;8.01;48.31;103093.78;4955343;28;46179;-51
2022/03/19 06:11:49;;;;;;;;;32.25;25.25;;;;;8.04;47.34;103090.09;4955690;28;45327;-53
2022/03/19 06:14:14;;;;;;;;;32.00;25.00;;;;;8.03;47.78;103097.19;4955857;28;45319;-46
2022/03/19 06:16:39;;;;;;;;;33.25;27.75;;;;;8.02;47.69;103089.34;4955682;28;45391;-53
2022/03/19 06:19:05;;;;;;;;;38.75;26.00;;;;;8.04;47.79;103090.09;4955602;28;46367;-51
2022/03/19 06:21:31;;;;;;;;;39.50;30.50;;;;;8.05;47.62;103086.50;4955448;28;45402;-53
2022/03/19 06:23:56;;;;;;;;;32.50;19.25;;;;;8.00;47.93;103073.47;4955346;28;45455;-44
2022/03/19 06:26:23;;;;;;;;;35.00;29.75;;;;;8.03;48.06;103083.94;4955936;28;45435;-51
2022/03/19 06:28:51;;;;;;;;;41.75;32.50;;;;;8.04;48.74;103084.81;4955391;28;46436;-46
2022/03/19 06:31:17;;;;;;;;;37.50;27.50;;;;;7.99;48.77;103088.53;4955024;28;45528;-48
2022/03/19 06:33:43;;;;;;;;;42.75;31.50;;;;;8.06;48.12;103094.41;4955281;28;45905;-43
2022/03/19 06:38:53;;;;;;;;;34.00;28.75;;;;;7.99;48.90;103077.06;4955122;28;45563;-47
2022/03/19 06:41:19;;;;;;;;;47.00;32.00;;;;;8.09;49.31;103088.97;4955075;28;45490;-49
2022/03/19 06:43:44;;;;;;;;;37.25;25.75;;;;;8.15;48.06;103087.81;4953936;28;45377;-44
2022/03/19 06:46:10;;;;;;;;;50.00;36.00;;;;;8.12;49.15;103083.50;4954939;28;45362;-51
2022/03/19 06:48:35;;;;;;;;;43.75;38.50;;;;;8.19;49.40;103092.03;4955164;28;46298;-53
2022/03/19 06:51:01;;;;;;;;;42.25;34.75;;;;;8.21;48.96;103091.00;4954999;28;45435;-52
2022/03/19 06:53:26;;;;;;;;;41.75;28.75;;;;;8.24;48.55;103095.31;4955187;28;45358;-52
2022/03/19 06:55:52;;;;;;;;;42.50;32.50;;;;;8.26;49.70;103106.72;4955337;28;45377;-44
2022/03/19 06:58:21;;;;;;;;;51.50;41.00;;;;;8.31;48.97;103095.91;4954915;28;45813;-53
2022/03/19 07:00:47;;;;;;;;;44.00;32.00;;;;;8.19;49.00;103076.97;4954806;28;45453;-54
2022/03/19 07:03:12;;;;;;;;;53.00;34.00;;;;;8.39;49.76;103099.06;4954865;28;45411;-48
2022/03/19 07:05:38;;;;;;;;;43.25;34.50;;;;;8.33;48.59;103075.44;4955237;28;45976;-50
2022/03/19 07:08:07;;;;;;;;;42.25;26.75;;;;;8.46;48.04;103084.56;4954654;28;46260;-51
2022/03/19 07:10:34;;;;;;;;;44.25;36.00;;;;;8.47;48.87;103078.34;4954633;28;45218;-50
2022/03/19 07:12:59;;;;;;;;;43.00;33.75;;;;;8.56;49.12;103095.59;4954828;28;45226;-49
2022/03/19 07:15:29;;;;;;;;;50.00;37.50;;;;;8.56;49.36;103082.31;4954508;28;45342;-54
2022/03/19 07:17:55;;;;;;;;;51.25;35.00;;;;;8.62;49.53;103090.81;4954623;28;46163;-47
2022/03/19 07:20:21;;;;;;;;;47.50;36.00;;;;;8.67;49.16;103091.44;4954324;28;45261;-52
2022/03/19 07:22:53;;;;;;;;;49.50;39.75;;;;;8.72;48.93;103086.78;4954496;28;45386;-49
2022/03/19 07:25:20;;;;;;;;;43.25;31.75;;;;;8.78;49.38;103087.41;4954814;28;45473;-52
2022/03/19 07:27:46;;;;;;;;;56.25;39.75;;;;;8.87;48.38;103085.13;4954302;28;45419;-45
2022/03/19 07:30:13;;;;;;;;;58.75;42.75;;;;;8.94;49.08;103088.34;4954340;28;45445;-42
2022/03/19 07:32:39;;;;;;;;;60.25;43.00;;;;;9.00;48.35;103090.66;4954670;28;45486;-50
2022/03/19 07:35:06;;;;;;;;;59.50;42.75;;;;;8.90;49.02;103062.91;4954606;28;45429;-49
2022/03/19 07:37:32;;;;;;;;;67.00;44.25;;;;;9.08;49.11;103085.81;4954250;28;46088;-51
2022/03/19 07:39:59;;;;;;;;;52.75;42.25;;;;;9.15;49.65;103081.91;4954042;28;45434;-47
2022/03/19 07:42:25;;;;;;;;;56.00;42.75;;;;;9.24;49.55;103078.78;4954139;28;45356;-48
2022/03/19 07:44:50;;;;;;;;;51.25;41.50;;;;;9.34;49.11;103087.09;4953956;28;45974;-51
2022/03/19 07:47:17;;;;;;;;;51.25;42.25;;;;;9.36;49.21;103084.38;4953874;28;45359;-49
2022/03/19 07:49:42;;;;;;;;;56.25;42.75;;;;;9.45;48.39;103092.72;4953937;28;45386;-44
2022/03/19 07:52:09;;;;;;;;;58.75;43.75;;;;;9.53;48.76;103081.69;4954003;28;45505;-47
2022/03/19 07:54:36;;;;;;;;;67.00;46.25;;;;;9.61;49.13;103079.47;4955363;28;45380;-51
2022/03/19 07:57:03;;;;;;;;;61.25;46.25;;;;;9.64;48.78;103083.75;4957103;28;45440;-51
2022/03/19 07:59:28;;;;;;;;;59.75;45.50;;;;;9.67;48.76;103075.63;4957542;28;45681;-51
2022/03/19 08:01:54;;;;;;;;;63.25;47.00;;;;;9.73;48.58;103072.59;4958978;28;45363;-49
2022/03/19 08:04:19;;;;;;;;;66.25;44.00;;;;;9.81;48.79;103074.84;4957839;28;45522;-48
2022/03/19 08:06:45;;;;;;;;;67.50;47.00;;;;;9.87;48.82;103074.53;4957151;28;45998;-47
2022/03/19 08:09:10;;;;;;;;;65.75;43.50;;;;;9.94;48.50;103078.53;4956892;28;45557;-49
2022/03/19 08:11:36;;;;;;;;;66.75;46.25;;;;;9.99;49.33;103068.53;4956978;28;45840;-45
2022/03/19 08:14:03;;;;;;;;;58.75;45.00;;;;;10.08;48.34;103081.31;4956744;28;45586;-43
2022/03/19 08:16:30;;;;;;;;;61.75;45.50;;;;;10.16;48.69;103081.72;4956372;28;46228;-44
2022/03/19 08:18:55;;;;;;;;;67.00;47.75;;;;;10.23;48.66;103075.09;4956511;28;45330;-44
2022/03/19 08:21:21;;;;;;;;;63.50;49.00;;;;;10.26;48.15;103074.09;4956776;28;45400;-46
2022/03/19 08:23:47;;;;;;;;;57.75;43.50;;;;;10.38;48.14;103070.75;4956863;28;45775;-45
2022/03/19 08:26:12;;;;;;;;;60.75;44.00;;;;;10.38;48.10;103064.56;4955210;28;45755;-52
2022/03/19 08:28:38;;;;;;;;;62.50;46.25;;;;;10.46;47.85;103068.50;4956094;28;45351;-43
2022/03/19 08:31:04;;;;;;;;;55.50;43.00;;;;;10.55;48.24;103066.25;4966129;28;45758;-47
2022/03/19 08:33:29;;;;;;;;;64.75;43.75;;;;;10.72;47.71;103058.13;5079148;27;45351;-45
2022/03/19 08:35:54;;;;;;;;;70.00;48.25;;;;;10.97;47.40;103047.72;5078495;27;45531;-55
2022/03/19 08:41:04;;;;;;;;;66.00;49.00;;;;;13.83;42.74;103041.16;5078373;28;45431;-50
2022/03/19 08:43:30;;;;;;;;;61.50;44.00;;;;;15.16;41.36;103046.28;5078479;27;45555;-43
2022/03/19 08:45:55;;;;;;;;;68.00;47.50;;;;;16.15;39.08;103054.38;5077916;27;45885;-44
2022/03/19 08:48:20;;;;;;;;;65.50;46.75;;;;;17.28;36.26;103045.72;5078115;27;45640;-45
2022/03/19 08:50:47;;;;;;;;;41.25;38.25;;;;;18.16;34.59;103028.81;5078442;27;45390;-50
2022/03/19 08:53:16;;;;;;;;;58.50;45.00;;;;;18.91;35.05;103030.75;5078774;27;45501;-52
2022/03/19 08:55:42;;;;;;;;;61.25;46.50;;;;;19.51;33.48;103018.72;5078288;27;46015;-51
2022/03/19 08:58:07;;;;;;;;;64.00;47.75;;;;;20.16;32.15;103033.84;5077967;27;45293;-50
2022/03/19 09:00:34;;;;;;;;;63.50;47.00;;;;;20.66;30.61;103033.28;5078433;27;45414;-49
2022/03/19 09:02:59;;;;;;;;;56.00;41.75;;;;;20.94;30.09;103035.81;5078242;27;45460;-43
2022/03/19 09:05:27;;;;;;;;;56.00;44.67;;;;;21.05;29.26;103024.75;5076888;27;45679;-45
2022/03/19 09:07:53;;;;;;;;;53.00;38.67;;;;;21.51;28.77;103046.16;5078474;27;45481;-43
2022/03/19 09:10:18;;;;;;;;;58.00;43.33;;;;;21.71;28.04;103033.19;5078237;28;45215;-45
2022/03/19 09:12:44;;;;;;;;;53.00;41.67;;;;;22.04;27.69;103032.25;5078670;27;45386;-45
2022/03/19 09:15:11;;;;;;;;;55.67;41.00;;;;;22.15;27.36;103023.81;5077918;27;46491;-44
2022/03/19 09:17:37;;;;;;;;;51.33;40.33;;;;;22.28;26.67;103014.34;5078019;27;45349;-42
2022/03/19 09:20:03;;;;;;;;;59.00;45.00;;;;;22.62;26.68;103019.56;5078106;27;45569;-53
2022/03/19 09:22:31;;;;;;;;;60.67;45.33;;;;;23.22;26.35;103013.72;5078289;27;45346;-54
2022/03/19 09:24:57;;;;;;;;;51.67;38.67;;;;;23.48;25.58;103018.03;5077849;27;46450;-48
2022/03/19 09:27:22;;;;;;;;;59.67;43.00;;;;;23.33;25.15;103015.19;5077939;27;45447;-48
2022/03/19 09:29:48;;;;;;;;;57.00;43.00;;;;;23.41;24.74;103016.00;5078250;27;45283;-47
2022/03/19 09:32:16;;;;;;;;;58.67;43.67;;;;;23.63;24.85;103008.06;5078326;27;45375;-53
2022/03/19 09:34:43;;;;;;;;;57.00;45.00;;;;;23.51;24.60;103009.50;5077986;27;46271;-45
2022/03/19 09:37:08;;;;;;;;;22.67;15.00;;;;;23.63;24.49;103003.47;5077300;27;45479;-52
2022/03/19 09:39:34;;;;;;;;;61.67;44.67;;;;;23.53;24.87;102997.44;5077593;27;45720;-54
2022/03/19 09:42:01;;;;;;;;;57.00;44.00;;;;;23.71;24.75;102990.91;5078084;27;45309;-48
2022/03/19 09:44:26;;;;;;;;;55.33;42.00;;;;;24.14;24.25;102995.72;5077159;27;46263;-52
2022/03/19 09:46:53;;;;;;;;;56.00;43.67;;;;;24.06;24.14;102997.63;5076245;28;45519;-53
2022/03/19 09:49:19;;;;;;;;;54.67;39.33;;;;;23.73;24.29;102994.31;5077977;27;45398;-55
2022/03/19 09:51:50;;;;;;;;;59.67;45.67;;;;;;;;5078382;27;45322;-54
2022/03/19 09:54:15;;;;;;;;;43.67;37.67;;;;;23.13;25.69;102988.47;5077703;27;47064;-53
2022/03/19 09:56:40;;;;;;;;;56.33;43.00;;;;;22.72;26.81;102979.56;5077554;27;45513;-50
2022/03/19 09:59:06;;;;;;;;;50.33;38.00;;;;;22.58;26.48;102986.50;5077875;27;45800;-53
2022/03/19 10:01:33;;;;;;;;;54.00;45.33;;;;;22.48;26.64;102976.88;5077971;28;45390;-52
2022/03/19 10:04:07;;;;;;;;;46.33;36.67;;;;;22.72;25.97;102976.84;5077859;27;46247;-52
2022/03/19 10:09:21;;;;;;;;;54.33;42.33;;;;;23.25;25.49;102972.59;5077798;27;45238;-52
2022/03/19 10:11:49;;;;;;;;;51.67;42.67;;;;;23.44;25.71;102973.22;5077812;27;45421;-50
2022/03/19 10:14:19;;;;;;;;;55.67;42.00;;;;;;;;5077588;27;45334;-53
2022/03/19 10:16:48;;;;;;;;;56.33;42.33;;;;;23.63;26.19;102965.44;5077021;28;45267;-54
2022/03/19 10:19:14;;;;;;;;;48.67;40.67;;;;;24.12;25.40;102969.72;5077243;28;45439;-51
2022/03/19 10:21:42;;;;;;;;;62.00;44.33;;;;;24.96;24.53;102970.44;5077796;27;45434;-49
2022/03/19 10:24:27;;;;;;;;;51.67;42.33;;;;;26.82;22.60;102970.47;5077178;27;46081;-45
2022/03/19 10:26:53;;;;;;;;;51.00;39.67;;;;;28.70;20.80;102952.38;5077108;27;45366;-45
2022/03/19 10:29:27;;;;;;;;;49.33;41.33;;;;;30.00;18.27;102949.44;5077658;27;45725;-49
2022/03/19 10:31:59;;;;;;;;;51.00;40.33;;;;;31.06;17.35;102942.91;5077638;27;45484;-46
2022/03/19 10:34:25;;;;;;;;;51.67;41.00;;;;;31.46;16.83;102945.97;5077003;27;45985;-46
2022/03/19 10:36:50;;;;;;;;;52.00;40.33;;;;;32.25;16.14;102948.56;5077427;27;45342;-46
2022/03/19 10:39:20;;;;;;;;;52.67;42.33;;;;;32.62;16.27;102943.66;5077596;27;45423;-47
2022/03/19 10:41:47;;;;;;;;;53.50;41.50;;;;;32.91;15.18;102936.28;5077538;27;45361;-46
2022/03/19 10:44:17;;;;;;;;;40.50;32.75;;;;;33.65;15.43;102930.00;5076989;27;46397;-45
2022/03/19 10:46:47;;;;;;;;;43.75;34.50;;;;;34.10;14.39;102927.19;5076850;27;45322;-44
2022/03/19 10:49:14;;;;;;;;;54.25;40.75;;;;;34.52;14.45;102932.25;5077056;27;45480;-46
2022/03/19 10:51:43;;;;;;;;;44.75;37.75;;;;;35.25;13.70;102917.13;5077390;27;45416;-44
2022/03/19 10:54:11;;;;;;;;;50.50;39.25;;;;;35.43;13.92;102913.13;5077152;27;45421;-45
2022/03/19 10:56:37;;;;;;;;;51.75;37.75;;;;;35.86;13.89;102933.50;5076732;27;45469;-51
2022/03/19 10:59:02;;;;;;;;;51.75;40.75;;;;;36.12;13.42;102917.09;5077683;27;45196;-46
2022/03/19 11:01:29;;;;;;;;;50.00;38.50;;;;;36.44;12.36;102912.31;5077361;27;45544;-46
2022/03/19 11:03:55;;;;;;;;;46.50;35.75;;;;;36.56;11.81;102908.47;5076916;27;45350;-45
2022/03/19 11:06:25;;;;;;;;;46.40;35.40;;;;;36.97;13.35;102904.78;5077020;27;45366;-46
2022/03/19 11:08:51;;;;;;;;;50.25;42.25;;;;;37.12;12.18;102901.19;5076976;27;45194;-45
2022/03/19 11:11:18;;;;;;;;;49.50;39.50;;;;;37.44;12.08;102902.94;5075914;28;45289;-47
2022/03/19 11:13:51;;;;;;;;;45.60;35.80;;;;;37.93;12.72;102897.69;5076929;27;46117;-47
2022/03/19 11:16:20;;;;;;;;;46.00;37.00;;;;;37.59;12.11;102905.72;5076666;27;45394;-42
2022/03/19 11:18:47;;;;;;;;;49.40;39.60;;;;;37.43;11.99;102892.97;5076827;27;45706;-42
2022/03/19 11:21:16;;;;;;;;;49.50;39.25;;;;;37.41;11.09;102886.84;5077163;27;45409;-46
2022/03/19 11:23:51;;;;;;;;;44.20;34.40;;;;;37.99;11.96;102889.31;5076543;27;46177;-45
2022/03/19 11:26:22;;;;;;;;;43.60;35.40;;;;;38.14;12.11;102881.78;5076625;27;45248;-53
2022/03/19 11:28:48;;;;;;;;;47.40;37.40;;;;;37.89;11.72;102873.53;5076225;27;45447;-45